Time;durP1;ratioP1;P1;durP2;ratioP2;P2;SDS_P1;SDS_P2;PMS_P1;PMS_P2;Temp;Humidity;BMP_temperature;BMP_pressure;BME280_temperature;BME280_humidity;BME280_pressure;Samples;Min_cycle;Max_cycle;Signal;HPM_P1;HPM_P2
2022/04/11 00:01:19;;;;;;;6.10;1.80;;;8.20;85.40;;;;;;5093598;28;20421;-67
2022/04/11 00:03:45;;;;;;;6.82;1.88;;;8.10;85.30;;;;;;5092286;28;20062;-66
2022/04/11 00:06:10;;;;;;;7.47;2.35;;;8.20;85.40;;;;;;5093165;28;20024;-67
2022/04/11 00:08:36;;;;;;;6.40;2.33;;;8.10;85.30;;;;;;5092246;28;20039;-66
2022/04/11 00:11:01;;;;;;;4.88;1.98;;;8.10;85.40;;;;;;5074994;28;20108;-66
2022/04/11 00:13:27;;;;;;;3.25;1.80;;;8.10;85.50;;;;;;5088513;28;20130;-66
2022/04/11 00:15:52;;;;;;;8.15;1.90;;;8.10;85.60;;;;;;5093292;28;20028;-67
2022/04/11 00:18:18;;;;;;;5.90;1.70;;;8.10;85.70;;;;;;5091214;28;20032;-67
2022/04/11 00:20:43;;;;;;;5.68;1.80;;;8.10;85.80;;;;;;5093366;28;20028;-67
2022/04/11 00:23:09;;;;;;;4.22;1.77;;;8.10;85.90;;;;;;5074470;28;20032;-67
2022/04/11 00:25:34;;;;;;;6.07;1.63;;;8.00;85.90;;;;;;5092126;28;20146;-68
2022/04/11 00:28:00;;;;;;;3.90;1.80;;;8.00;86.00;;;;;;5076498;28;20088;-67
2022/04/11 00:30:25;;;;;;;5.60;1.63;;;8.00;86.00;;;;;;5092651;28;20394;-66
2022/04/11 00:32:51;;;;;;;6.25;1.83;;;8.00;86.00;;;;;;5091792;28;20051;-67
2022/04/11 00:35:16;;;;;;;3.33;1.38;;;8.00;86.10;;;;;;5092765;28;20458;-66
2022/04/11 00:37:42;;;;;;;6.93;1.95;;;8.00;86.20;;;;;;5091293;28;20020;-66
2022/04/11 00:40:09;;;;;;;8.45;2.20;;;8.00;86.20;;;;;;5077104;28;20514;-67
2022/04/11 00:42:35;;;;;;;7.85;1.60;;;7.90;86.30;;;;;;5070501;28;20387;-66
2022/04/11 00:45:01;;;;;;;6.70;2.63;;;7.90;86.40;;;;;;5091855;28;20039;-67
2022/04/11 00:47:27;;;;;;;4.57;1.95;;;7.90;86.40;;;;;;5071114;28;20052;-67
2022/04/11 00:49:58;;;;;;;4.60;1.50;;;7.90;86.50;;;;;;5091855;28;20032;-66
2022/04/11 00:52:30;;;;;;;3.35;1.60;;;7.90;86.60;;;;;;5092597;28;20388;-67
2022/04/11 00:54:56;;;;;;;6.25;1.95;;;7.90;86.70;;;;;;5073192;28;20052;-66
2022/04/11 00:57:23;;;;;;;3.33;1.63;;;7.80;86.70;;;;;;5090441;28;20031;-67
2022/04/11 00:59:49;;;;;;;5.90;1.70;;;7.80;86.70;;;;;;5089162;28;20107;-67
2022/04/11 01:02:14;;;;;;;9.25;1.70;;;7.70;86.80;;;;;;5054171;28;20035;-68
2022/04/11 01:04:41;;;;;;;4.45;1.65;;;7.70;86.80;;;;;;5089076;28;20020;-68
2022/04/11 01:07:07;;;;;;;6.95;1.65;;;7.70;87.00;;;;;;5091970;28;20037;-68
2022/04/11 01:09:33;;;;;;;5.82;1.60;;;7.60;87.00;;;;;;5090947;28;20036;-68
2022/04/11 01:11:58;;;;;;;5.35;1.80;;;7.60;87.10;;;;;;5092029;28;20043;-68
2022/04/11 01:14:24;;;;;;;7.78;1.92;;;7.60;87.20;;;;;;5090795;28;20153;-68
2022/04/11 01:16:50;;;;;;;3.47;1.67;;;7.60;87.40;;;;;;5091807;28;20024;-68
2022/04/11 01:19:17;;;;;;;6.57;1.83;;;7.50;87.50;;;;;;5090408;28;20024;-67
2022/04/11 01:21:46;;;;;;;5.32;1.90;;;7.50;87.60;;;;;;5092361;28;20027;-68
2022/04/11 01:24:12;;;;;;;4.90;1.80;;;7.50;87.70;;;;;;5068251;28;20032;-68
2022/04/11 01:26:37;;;;;;;5.18;1.77;;;7.50;87.80;;;;;;5091527;28;20384;-68
2022/04/11 01:29:06;;;;;;;4.70;1.85;;;7.50;87.90;;;;;;5090077;28;20578;-68
2022/04/11 01:31:32;;;;;;;4.68;1.88;;;7.40;87.90;;;;;;5090170;28;20024;-67
2022/04/11 01:33:57;;;;;;;6.00;2.08;;;7.40;88.10;;;;;;5089465;28;20051;-67
2022/04/11 01:36:23;;;;;;;3.67;1.85;;;7.40;88.10;;;;;;5092042;28;20035;-67
2022/04/11 01:38:49;;;;;;;5.15;2.53;;;7.30;88.20;;;;;;5081270;28;20027;-67
2022/04/11 01:41:14;;;;;;;9.02;1.88;;;7.30;88.30;;;;;;5071189;28;20024;-68
2022/04/11 01:43:40;;;;;;;6.55;1.77;;;7.30;88.40;;;;;;5080074;28;20490;-67
2022/04/11 01:46:05;;;;;;;2.40;1.55;;;7.30;88.40;;;;;;5082488;28;20013;-67
2022/04/11 01:48:31;;;;;;;4.57;1.80;;;7.20;88.70;;;;;;5077972;28;20036;-67
2022/04/11 01:50:56;;;;;;;7.10;2.35;;;7.20;89.20;;;;;;5090259;28;20069;-67
2022/04/11 01:53:22;;;;;;;5.05;1.63;;;7.10;89.00;;;;;;5088865;28;20028;-68
2022/04/11 01:55:47;;;;;;;5.70;2.20;;;7.10;89.00;;;;;;5071211;28;20021;-68
2022/04/11 01:58:13;;;;;;;4.55;1.67;;;7.00;89.00;;;;;;5089297;28;20114;-67
2022/04/11 02:00:40;;;;;;;6.30;1.92;;;7.00;89.00;;;;;;5091845;28;20051;-68
2022/04/11 02:03:07;;;;;;;5.68;2.10;;;7.00;89.10;;;;;;5087752;28;20578;-67
2022/04/11 02:05:33;;;;;;;7.85;2.30;;;7.00;89.20;;;;;;5092031;28;20418;-67
2022/04/11 02:07:58;;;;;;;6.75;1.90;;;7.00;89.40;;;;;;5088780;28;20499;-67
2022/04/11 02:10:25;;;;;;;6.88;2.47;;;6.90;89.30;;;;;;5091531;28;20016;-68
2022/04/11 02:12:51;;;;;;;4.75;2.30;;;6.90;89.30;;;;;;5069520;28;20039;-68
2022/04/11 02:15:17;;;;;;;6.30;1.75;;;6.90;89.40;;;;;;5075216;28;20025;-68
2022/04/11 02:17:46;;;;;;;4.75;1.88;;;6.90;89.40;;;;;;5088688;28;20170;-67
2022/04/11 02:20:12;;;;;;;2.47;1.52;;;6.90;89.50;;;;;;5091146;28;20028;-67
2022/04/11 02:22:48;;;;;;;5.43;2.55;;;6.90;89.50;;;;;;5088984;28;20130;-67
2022/04/11 02:25:15;;;;;;;3.30;1.67;;;6.90;89.70;;;;;;5091193;28;20040;-67
2022/04/11 02:27:41;;;;;;;4.20;1.80;;;6.90;89.50;;;;;;5089416;28;20550;-68
2022/04/11 02:30:07;;;;;;;5.15;2.13;;;6.90;89.60;;;;;;5095188;28;20016;-68
2022/04/11 02:32:33;;;;;;;7.95;1.92;;;6.90;89.70;;;;;;5089141;28;20712;-68
2022/04/11 02:34:58;;;;;;;7.43;1.85;;;6.90;89.70;;;;;;5079913;28;20116;-67
2022/04/11 02:37:24;;;;;;;6.05;2.13;;;6.90;89.80;;;;;;5093079;28;20562;-67
2022/04/11 02:39:49;;;;;;;5.35;1.60;;;6.90;89.80;;;;;;5093500;28;20114;-67
2022/04/11 02:42:22;;;;;;;6.05;1.70;;;6.90;89.80;;;;;;5087786;28;20078;-68
2022/04/11 02:44:48;;;;;;;6.35;2.38;;;6.80;89.90;;;;;;5077113;28;20404;-67
2022/04/11 02:47:13;;;;;;;5.38;1.70;;;6.80;89.90;;;;;;5088688;28;20074;-67
2022/04/11 02:49:38;;;;;;;5.95;2.25;;;6.80;90.00;;;;;;5079459;28;20052;-67
2022/04/11 02:52:04;;;;;;;5.63;1.90;;;6.80;90.00;;;;;;5093118;28;20024;-67
2022/04/11 02:54:30;;;;;;;5.45;1.70;;;6.80;90.00;;;;;;5095404;28;20020;-67
2022/04/11 02:56:55;;;;;;;6.10;2.03;;;6.80;90.00;;;;;;5072401;28;20034;-67
2022/04/11 02:59:21;;;;;;;5.28;1.88;;;6.80;90.00;;;;;;5074729;28;20614;-67
2022/04/11 03:01:46;;;;;;;5.68;1.90;;;6.80;90.00;;;;;;5088872;28;20115;-68
2022/04/11 03:04:11;;;;;;;4.70;1.80;;;6.80;90.00;;;;;;5093872;28;20135;-68
2022/04/11 03:06:37;;;;;;;4.18;2.00;;;6.80;90.00;;;;;;5083796;28;20387;-68
2022/04/11 03:09:02;;;;;;;5.93;2.17;;;6.90;90.10;;;;;;5094611;28;20032;-68
2022/04/11 03:11:28;;;;;;;7.80;2.35;;;6.90;90.10;;;;;;5093431;28;20483;-68
2022/04/11 03:13:53;;;;;;;6.93;1.98;;;6.80;90.10;;;;;;5094556;28;20066;-68
2022/04/11 03:16:19;;;;;;;8.63;2.28;;;6.90;90.20;;;;;;5094395;28;20024;-68
2022/04/11 03:18:44;;;;;;;8.15;1.90;;;6.80;90.10;;;;;;5075072;28;20025;-68
2022/04/11 03:21:10;;;;;;;4.30;1.60;;;6.80;90.20;;;;;;5064136;28;20134;-68
2022/04/11 03:23:35;;;;;;;5.45;2.15;;;6.80;90.20;;;;;;5093103;28;20028;-68
2022/04/11 03:26:01;;;;;;;7.43;2.30;;;6.80;90.20;;;;;;5094122;28;20038;-68
2022/04/11 03:28:26;;;;;;;5.72;2.45;;;6.80;90.30;;;;;;5093128;28;20032;-68
2022/04/11 03:30:52;;;;;;;4.90;2.00;;;6.80;90.30;;;;;;5094233;28;20031;-68
2022/04/11 03:33:17;;;;;;;8.75;2.10;;;6.90;90.30;;;;;;5067956;28;20527;-68
2022/04/11 03:35:43;;;;;;;5.53;2.08;;;6.80;90.40;;;;;;5084007;28;20048;-67
2022/04/11 03:38:08;;;;;;;5.55;2.10;;;6.80;90.40;;;;;;5079512;28;20451;-67
2022/04/11 03:40:34;;;;;;;5.10;2.08;;;6.80;90.40;;;;;;5074363;28;20396;-68
2022/04/11 03:42:59;;;;;;;4.38;2.30;;;6.80;90.40;;;;;;5091427;28;20115;-67
2022/04/11 03:45:25;;;;;;;7.75;2.45;;;6.80;90.40;;;;;;5093704;28;20449;-68
2022/04/11 03:47:50;;;;;;;4.80;2.20;;;6.70;90.40;;;;;;5091564;28;20032;-66
2022/04/11 03:50:15;;;;;;;5.90;1.98;;;6.70;90.40;;;;;;5091515;28;20048;-66
2022/04/11 03:52:41;;;;;;;4.45;1.80;;;6.70;90.50;;;;;;5089237;28;20036;-67
2022/04/11 03:55:07;;;;;;;4.93;2.03;;;6.70;90.50;;;;;;5092779;28;20020;-67
2022/04/11 03:57:33;;;;;;;7.35;2.38;;;6.70;90.60;;;;;;5083639;28;20638;-67
2022/04/11 03:59:59;;;;;;;5.28;2.42;;;6.70;90.60;;;;;;5087727;28;20035;-67
2022/04/11 04:02:24;;;;;;;5.95;2.20;;;6.70;90.60;;;;;;5080287;28;20028;-67
2022/04/11 04:04:49;;;;;;;5.63;2.10;;;6.70;90.60;;;;;;5084989;28;20032;-67
2022/04/11 04:07:15;;;;;;;4.10;1.98;;;6.70;90.60;;;;;;5091796;28;20113;-67
2022/04/11 04:09:40;;;;;;;7.63;2.05;;;6.70;90.60;;;;;;5074603;28;20140;-67
2022/04/11 04:12:07;;;;;;;4.75;2.28;;;6.70;90.60;;;;;;5088269;28;20024;-67
2022/04/11 04:14:36;;;;;;;4.35;1.92;;;6.70;90.70;;;;;;5082243;28;20032;-67
2022/04/11 04:17:02;;;;;;;8.95;2.00;;;6.70;91.00;;;;;;5087538;28;20020;-67
2022/04/11 04:19:27;;;;;;;10.40;2.50;;;6.60;90.80;;;;;;5080359;28;20609;-66
2022/04/11 04:21:53;;;;;;;9.20;2.30;;;6.70;90.90;;;;;;5091835;28;20028;-66
2022/04/11 04:24:22;;;;;;;6.90;3.10;;;6.60;90.90;;;;;;5093092;28;20028;-68
2022/04/11 04:26:48;;;;;;;6.55;2.10;;;6.60;91.00;;;;;;5073054;28;20033;-68
2022/04/11 04:29:15;;;;;;;7.80;2.60;;;6.50;91.20;;;;;;5092651;28;20517;-67
2022/04/11 04:31:41;;;;;;;4.85;2.30;;;6.50;91.10;;;;;;5091230;28;20743;-67
2022/04/11 04:34:06;;;;;;;6.15;2.50;;;6.50;91.10;;;;;;5091069;28;20103;-67
2022/04/11 04:36:32;;;;;;;8.13;2.65;;;6.50;91.20;;;;;;5091456;28;20031;-67
2022/04/11 04:38:57;;;;;;;6.95;2.38;;;6.50;91.30;;;;;;5092826;28;20052;-67
2022/04/11 04:41:23;;;;;;;8.90;2.90;;;6.50;91.40;;;;;;5084643;28;20051;-67
2022/04/11 04:43:48;;;;;;;7.00;3.13;;;6.50;91.40;;;;;;5091083;28;20035;-67
2022/04/11 04:46:13;;;;;;;5.93;2.60;;;6.50;91.40;;;;;;5092677;28;20495;-67
2022/04/11 04:48:39;;;;;;;6.05;2.50;;;6.50;91.50;;;;;;5090852;28;20027;-67
2022/04/11 04:51:04;;;;;;;10.35;3.72;;;6.40;91.50;;;;;;5091688;28;20416;-66
2022/04/11 04:53:30;;;;;;;5.72;2.50;;;6.40;91.60;;;;;;5077231;28;20039;-67
2022/04/11 04:55:55;;;;;;;5.00;2.38;;;6.50;91.60;;;;;;5074915;28;20023;-67
2022/04/11 04:58:21;;;;;;;9.45;2.70;;;6.40;91.60;;;;;;5090356;28;20051;-66
2022/04/11 05:00:46;;;;;;;6.80;2.45;;;6.50;91.70;;;;;;5092095;28;20411;-66
2022/04/11 05:03:12;;;;;;;5.32;2.55;;;6.50;91.70;;;;;;5085965;28;20028;-67
2022/04/11 05:05:37;;;;;;;6.47;2.83;;;6.40;91.70;;;;;;5078500;28;20453;-67
2022/04/11 05:08:03;;;;;;;5.30;2.75;;;6.40;91.70;;;;;;5060675;28;20044;-66
2022/04/11 05:10:28;;;;;;;6.68;2.53;;;6.30;91.80;;;;;;5058124;28;20395;-67
2022/04/11 05:12:54;;;;;;;7.28;2.70;;;6.30;91.80;;;;;;5090284;28;20024;-67
2022/04/11 05:15:19;;;;;;;7.68;2.80;;;6.30;91.90;;;;;;5092481;28;20027;-67
2022/04/11 05:17:45;;;;;;;5.65;3.00;;;6.30;92.00;;;;;;5090936;28;20032;-67
2022/04/11 05:20:11;;;;;;;7.78;3.50;;;6.30;92.00;;;;;;5091661;28;20107;-68
2022/04/11 05:22:37;;;;;;;7.32;3.30;;;6.30;92.00;;;;;;5086705;28;20032;-67
2022/04/11 05:25:03;;;;;;;10.40;3.60;;;6.40;92.00;;;;;;5086055;28;20084;-68
2022/04/11 05:27:28;;;;;;;7.40;2.95;;;6.40;92.10;;;;;;5085496;28;20069;-65
2022/04/11 05:29:54;;;;;;;6.60;3.30;;;6.50;92.10;;;;;;5085170;28;20421;-69
2022/04/11 05:32:19;;;;;;;6.90;3.40;;;6.50;92.10;;;;;;5073259;28;20039;-70
2022/04/11 05:34:45;;;;;;;7.25;3.63;;;6.50;92.10;;;;;;5080818;28;20021;-71
2022/04/11 05:37:11;;;;;;;9.52;3.92;;;6.60;92.10;;;;;;5088099;28;20035;-72
2022/04/11 05:39:36;;;;;;;9.20;3.20;;;6.60;92.10;;;;;;5090435;28;20028;-72
2022/04/11 05:42:02;;;;;;;5.85;3.13;;;6.70;92.10;;;;;;5091005;28;20383;-72
2022/04/11 05:44:27;;;;;;;6.55;3.47;;;6.70;92.10;;;;;;5087744;28;20036;-72
2022/04/11 05:46:53;;;;;;;9.25;3.70;;;6.80;92.10;;;;;;5078021;28;20124;-72
2022/04/11 05:49:20;;;;;;;8.40;3.28;;;6.80;92.00;;;;;;5089404;28;20025;-72
2022/04/11 05:51:46;;;;;;;4.18;2.95;;;6.80;92.00;;;;;;5087664;28;20036;-73
2022/04/11 05:54:12;;;;;;;5.50;3.22;;;6.90;92.00;;;;;;5082418;28;20146;-72
2022/04/11 05:56:38;;;;;;;5.10;3.03;;;6.90;92.00;;;;;;5079527;28;20478;-73
2022/04/11 05:59:04;;;;;;;6.65;3.13;;;6.90;92.00;;;;;;5086222;28;20059;-72
2022/04/11 06:01:30;;;;;;;5.43;2.90;;;7.00;91.90;;;;;;5087163;28;20051;-72
2022/04/11 06:03:56;;;;;;;7.35;3.38;;;7.00;91.90;;;;;;5086063;28;20089;-72
2022/04/11 06:06:21;;;;;;;6.13;2.85;;;7.00;91.90;;;;;;5082184;28;20476;-73
2022/04/11 06:08:47;;;;;;;9.68;3.28;;;7.10;91.80;;;;;;5086700;28;20424;-73
2022/04/11 06:11:13;;;;;;;9.38;3.25;;;7.10;91.80;;;;;;5088393;28;20180;-73
2022/04/11 06:13:42;;;;;;;6.85;3.72;;;7.20;91.80;;;;;;5067044;28;20395;-73
2022/04/11 06:16:08;;;;;;;7.07;3.30;;;7.20;91.70;;;;;;5054670;28;20114;-72
2022/04/11 06:18:34;;;;;;;6.28;3.30;;;7.20;91.70;;;;;;5081071;28;20115;-69
2022/04/11 06:20:59;;;;;;;7.53;3.33;;;7.30;91.70;;;;;;5072882;28;20029;-69
2022/04/11 06:23:25;;;;;;;8.77;3.63;;;7.30;91.60;;;;;;5077184;28;20409;-69
2022/04/11 06:25:50;;;;;;;9.13;3.47;;;7.40;91.50;;;;;;5070770;28;20028;-69
2022/04/11 06:28:16;;;;;;;7.35;3.45;;;7.40;91.40;;;;;;5087665;28;20032;-69
2022/04/11 06:30:41;;;;;;;5.80;3.42;;;7.40;91.40;;;;;;5082353;28;20161;-66
2022/04/11 06:33:07;;;;;;;5.45;3.05;;;7.40;91.30;;;;;;5074696;28;20078;-69
2022/04/11 06:35:32;;;;;;;6.57;3.17;;;7.50;91.20;;;;;;5086625;28;20025;-69
2022/04/11 06:37:58;;;;;;;7.00;3.53;;;7.50;91.10;;;;;;5081092;28;20015;-69
2022/04/11 06:40:23;;;;;;;7.72;3.72;;;7.60;91.10;;;;;;5092858;28;20077;-68
2022/04/11 06:42:49;;;;;;;7.22;2.75;;;7.60;91.00;;;;;;5084998;28;20035;-69
2022/04/11 06:45:14;;;;;;;8.45;3.20;;;7.60;90.80;;;;;;5088508;28;20035;-69
2022/04/11 06:47:40;;;;;;;6.80;2.38;;;7.70;90.70;;;;;;5085916;28;20078;-68
2022/04/11 06:50:06;;;;;;;5.43;2.85;;;7.80;90.50;;;;;;5078823;28;20028;-69
2022/04/11 06:52:31;;;;;;;4.63;2.00;;;7.80;90.20;;;;;;5061335;28;20020;-69
2022/04/11 06:54:57;;;;;;;5.40;2.35;;;7.90;90.10;;;;;;5072350;28;20028;-69
2022/04/11 06:57:24;;;;;;;4.78;2.10;;;7.90;89.60;;;;;;5085313;28;20012;-69
2022/04/11 06:59:50;;;;;;;4.10;1.85;;;8.00;89.30;;;;;;5090112;28;20032;-69
2022/04/11 07:02:16;;;;;;;4.97;2.47;;;8.10;88.80;;;;;;5081292;28;20035;-69
2022/04/11 07:04:42;;;;;;;3.95;2.13;;;8.10;88.20;;;;;;5080064;28;20507;-69
2022/04/11 07:07:07;;;;;;;3.60;1.80;;;8.10;88.10;;;;;;5080741;28;20131;-69
2022/04/11 07:09:33;;;;;;;5.38;2.08;;;8.20;87.60;;;;;;5071630;28;20024;-69
2022/04/11 07:11:58;;;;;;;5.57;1.90;;;8.20;87.30;;;;;;5083399;28;20132;-69
2022/04/11 07:14:24;;;;;;;3.97;2.10;;;8.20;86.30;;;;;;5075195;28;20020;-70
2022/04/11 07:16:52;;;;;;;3.95;2.22;;;8.30;86.60;;;;;;5090841;28;20583;-68
2022/04/11 07:19:18;;;;;;;5.15;2.30;;;8.40;86.80;;;;;;5092795;28;20837;-69
2022/04/11 07:21:45;;;;;;;4.25;1.95;;;8.40;86.60;;;;;;5090932;28;20032;-69
2022/04/11 07:24:11;;;;;;;4.90;2.83;;;8.50;86.60;;;;;;5067336;28;20025;-69
2022/04/11 07:26:37;;;;;;;4.60;1.95;;;8.50;86.10;;;;;;5076198;28;20027;-69
2022/04/11 07:29:02;;;;;;;7.72;2.22;;;8.60;85.90;;;;;;5087578;28;20070;-70
2022/04/11 07:31:29;;;;;;;5.50;2.00;;;8.70;85.40;;;;;;5077601;28;20028;-68
2022/04/11 07:33:54;;;;;;;6.15;2.00;;;8.70;84.20;;;;;;5088025;28;20052;-68
2022/04/11 07:36:20;;;;;;;4.75;2.13;;;8.70;84.10;;;;;;5074965;28;20059;-68
2022/04/11 07:38:45;;;;;;;4.68;2.00;;;8.90;84.40;;;;;;5090101;28;20024;-68
2022/04/11 07:41:11;;;;;;;3.00;2.03;;;8.90;84.50;;;;;;5103007;28;20023;-68
2022/04/11 07:43:36;;;;;;;2.92;1.80;;;8.90;83.50;;;;;;5090625;28;20429;-68
2022/04/11 07:46:04;;;;;;;4.40;1.92;;;8.90;82.30;;;;;;5093414;28;20020;-69
2022/04/11 07:48:29;;;;;;;4.55;1.75;;;8.90;81.10;;;;;;5089386;28;20040;-68
2022/04/11 07:50:55;;;;;;;3.72;1.70;;;8.90;81.20;;;;;;5074202;28;20029;-68
2022/04/11 07:53:20;;;;;;;7.63;2.47;;;8.90;80.70;;;;;;5088342;28;20537;-69
2022/04/11 07:55:46;;;;;;;6.35;2.15;;;9.00;81.20;;;;;;5089162;28;20057;-69
2022/04/11 07:58:12;;;;;;;4.93;2.08;;;9.10;81.30;;;;;;5077430;28;20502;-70
2022/04/11 08:00:37;;;;;;;6.25;1.90;;;9.10;81.50;;;;;;5084857;28;20071;-69
2022/04/11 08:03:03;;;;;;;6.75;1.75;;;9.20;80.20;;;;;;5088749;28;20071;-70
2022/04/11 08:05:29;;;;;;;5.28;1.80;;;9.20;80.80;;;;;;5092530;28;20476;-69
2022/04/11 08:07:54;;;;;;;4.57;1.95;;;9.30;79.50;;;;;;5079498;28;20095;-70
2022/04/11 08:10:21;;;;;;;5.78;2.08;;;9.30;78.50;;;;;;5088557;28;20467;-69
2022/04/11 08:12:55;;;;;;;4.60;1.95;;;9.30;78.40;;;;;;5084603;28;20039;-70
2022/04/11 08:15:22;;;;;;;4.13;1.60;;;9.30;76.80;;;;;;5088755;28;20063;-69
2022/04/11 08:17:48;;;;;;;4.60;1.83;;;9.30;76.10;;;;;;5073478;28;20051;-69
2022/04/11 08:20:14;;;;;;;5.00;2.53;;;9.40;76.50;;;;;;5092311;28;20154;-70
2022/04/11 08:22:39;;;;;;;6.97;2.47;;;9.40;76.00;;;;;;5089739;28;20368;-69
2022/04/11 08:25:05;;;;;;;9.10;2.35;;;9.40;75.30;;;;;;5081281;28;20020;-69
2022/04/11 08:27:31;;;;;;;3.53;1.65;;;9.40;75.50;;;;;;5074731;28;20473;-69
2022/04/11 08:29:56;;;;;;;3.63;1.30;;;9.50;75.80;;;;;;5083393;28;20177;-67
2022/04/11 08:32:21;;;;;;;6.93;1.80;;;9.50;74.50;;;;;;5088724;28;20031;-69
2022/04/11 08:34:47;;;;;;;4.47;2.13;;;9.60;74.60;;;;;;5087319;28;20032;-69
2022/04/11 08:37:12;;;;;;;5.25;1.58;;;9.60;74.00;;;;;;5088998;28;20028;-69
2022/04/11 08:39:38;;;;;;;2.67;1.65;;;9.60;73.00;;;;;;5089851;28;20062;-69
2022/04/11 08:42:04;;;;;;;3.35;1.73;;;9.60;72.80;;;;;;5087489;28;20024;-69
2022/04/11 08:44:31;;;;;;;6.03;2.03;;;9.80;72.90;;;;;;5087055;28;20031;-70
2022/04/11 08:47:01;;;;;;;5.38;1.50;;;9.80;72.30;;;;;;5088260;28;20028;-70
2022/04/11 08:49:29;;;;;;;3.10;1.50;;;9.80;71.40;;;;;;5087132;28;20040;-70
2022/04/11 08:51:54;;;;;;;5.38;1.52;;;9.90;70.80;;;;;;5086338;28;20024;-70
2022/04/11 08:54:20;;;;;;;3.90;1.30;;;9.90;70.60;;;;;;5088803;28;20032;-70
2022/04/11 08:56:45;;;;;;;5.22;1.15;;;10.00;70.90;;;;;;5087713;28;20016;-70
2022/04/11 08:59:14;;;;;;;5.03;1.90;;;10.00;70.70;;;;;;5091430;28;20047;-69
2022/04/11 09:01:40;;;;;;;4.63;1.48;;;10.10;70.50;;;;;;5071578;28;20039;-68
2022/04/11 09:04:08;;;;;;;3.20;1.25;;;10.20;69.50;;;;;;5086010;28;20032;-70
2022/04/11 09:06:35;;;;;;;2.10;1.20;;;10.20;69.40;;;;;;5087118;28;20055;-69
2022/04/11 09:09:02;;;;;;;6.32;1.48;;;10.30;69.40;;;;;;5088056;28;20039;-70
2022/04/11 09:11:35;;;;;;;3.63;1.23;;;10.30;68.40;;;;;;5084884;28;20028;-69
2022/04/11 09:14:02;;;;;;;5.45;1.45;;;10.40;68.10;;;;;;5086897;28;20016;-69
2022/04/11 09:16:41;;;;;;;3.33;1.40;;;10.40;67.30;;;;;;5081231;28;20489;-70
2022/04/11 09:19:17;;;;;;;3.08;1.25;;;10.40;66.20;;;;;;5081432;28;20058;-69
2022/04/11 09:21:46;;;;;;;12.25;1.70;;;10.50;66.90;;;;;;5085975;28;20113;-70
2022/04/11 09:24:22;;;;;;;6.28;1.42;;;10.50;66.30;;;;;;5088756;28;20063;-70
2022/04/11 09:26:50;;;;;;;4.60;1.60;;;10.60;66.70;;;;;;5066650;28;20028;-70
2022/04/11 09:29:15;;;;;;;5.25;1.40;;;10.60;65.50;;;;;;5087658;28;20164;-70
2022/04/11 09:31:41;;;;;;;2.70;1.25;;;10.80;66.40;;;;;;5077926;28;20020;-71
2022/04/11 09:34:22;;;;;;;2.45;1.27;;;10.80;65.90;;;;;;5084741;28;20028;-70
2022/04/11 09:36:55;;;;;;;3.35;1.55;;;10.90;65.60;;;;;;5088692;28;20021;-70
2022/04/11 09:39:30;;;;;;;4.75;1.23;;;10.90;65.60;;;;;;5078749;28;20440;-70
2022/04/11 09:41:55;;;;;;;2.65;1.15;;;11.00;65.20;;;;;;5087485;28;20023;-70
2022/04/11 09:44:29;;;;;;;3.10;1.80;;;11.10;64.30;;;;;;5085883;28;20390;-70
2022/04/11 09:47:00;;;;;;;5.10;1.80;;;11.10;64.20;;;;;;5086140;28;20055;-71
2022/04/11 09:49:26;;;;;;;5.50;2.13;;;11.20;64.20;;;;;;5081443;28;20478;-70
2022/04/11 09:52:11;;;;;;;2.72;1.40;;;11.30;63.80;;;;;;5084007;28;20099;-70
2022/04/11 09:54:42;;;;;;;7.70;1.55;;;11.40;64.10;;;;;;5076598;28;20486;-61
2022/04/11 09:57:09;;;;;;;3.55;1.50;;;11.50;66.00;;;;;;5074426;28;20052;-68
2022/04/11 09:59:36;;;;;;;6.70;1.60;;;11.70;66.10;;;;;;5080605;28;20028;-71
2022/04/11 10:02:03;;;;;;;3.33;1.40;;;11.80;64.80;;;;;;5089981;28;20031;-70
2022/04/11 10:04:29;;;;;;;2.08;1.13;;;11.90;64.20;;;;;;5084248;28;20497;-70
2022/04/11 10:06:55;;;;;;;2.10;1.30;;;12.00;62.90;;;;;;5089954;28;20058;-70
2022/04/11 10:09:23;;;;;;;3.22;1.40;;;12.10;60.00;;;;;;5090140;28;20028;-70
2022/04/11 10:11:51;;;;;;;3.67;1.48;;;12.20;61.30;;;;;;5057866;28;20043;-70
2022/04/11 10:14:23;;;;;;;3.47;1.40;;;12.30;60.70;;;;;;5072350;28;20033;-70
2022/04/11 10:16:51;;;;;;;5.07;1.90;;;12.40;60.90;;;;;;5086400;28;20103;-70
2022/04/11 10:19:22;;;;;;;5.85;2.15;;;12.50;59.80;;;;;;5089773;28;20506;-71
2022/04/11 10:21:49;;;;;;;2.25;1.20;;;12.50;59.20;;;;;;5061964;28;20028;-70
2022/04/11 10:24:27;;;;;;;5.30;1.60;;;12.60;59.40;;;;;;5070863;28;20040;-71
2022/04/11 10:26:54;;;;;;;2.40;1.30;;;12.60;59.30;;;;;;5089066;28;20036;-71
2022/04/11 10:29:36;;;;;;;4.05;1.55;;;12.60;58.80;;;;;;5069187;28;20483;-71
2022/04/11 10:32:09;;;;;;;2.53;1.50;;;12.50;57.20;;;;;;5079634;28;20055;-71
2022/04/11 10:35:01;;;;;;;5.55;1.92;;;12.60;58.30;;;;;;5090095;28;20435;-71
2022/04/11 10:37:48;;;;;;;3.63;1.40;;;12.70;58.20;;;;;;5081068;28;20041;-71
2022/04/11 10:40:16;;;;;;;3.10;1.45;;;12.80;57.80;;;;;;5080773;28;20126;-71
2022/04/11 10:43:08;;;;;;;4.07;1.20;;;12.90;57.50;;;;;;5084640;28;20043;-71
2022/04/11 10:45:56;;;;;;;4.55;1.70;;;13.00;57.70;;;;;;5083722;28;20502;-71
2022/04/11 10:48:58;;;;;;;4.72;1.73;;;13.20;57.80;;;;;;5090256;28;20077;-71
2022/04/11 10:51:23;;;;;;;2.58;1.40;;;13.20;56.70;;;;;;5093282;28;20499;-70
2022/04/11 10:54:15;;;;;;;3.35;1.40;;;13.40;57.00;;;;;;5094941;28;20024;-70
2022/04/11 10:56:55;;;;;;;5.18;1.70;;;13.40;53.00;;;;;;5085491;28;20119;-71
2022/04/11 10:59:28;;;;;;;3.13;1.77;;;13.50;54.20;;;;;;5094779;28;20028;-71
2022/04/11 11:01:56;;;;;;;5.28;2.30;;;13.60;54.20;;;;;;5091467;28;20038;-71
2022/04/11 11:04:22;;;;;;;4.97;1.92;;;13.60;53.80;;;;;;5074500;28;20074;-71
2022/04/11 11:07:15;;;;;;;4.38;1.58;;;13.60;54.40;;;;;;5090012;28;20043;-71
2022/04/11 11:09:41;;;;;;;4.57;1.65;;;13.80;54.60;;;;;;5092157;28;20150;-71
2022/04/11 11:12:19;;;;;;;4.22;1.60;;;14.00;54.80;;;;;;5091023;28;20115;-71
2022/04/11 11:14:45;;;;;;;3.33;1.63;;;14.20;54.00;;;;;;5078074;28;20112;-70
2022/04/11 11:17:11;;;;;;;2.80;1.60;;;14.30;53.90;;;;;;5090149;28;20549;-71
2022/04/11 11:20:01;;;;;;;3.28;1.42;;;14.40;53.80;;;;;;5078344;28;20039;-71
2022/04/11 11:22:31;;;;;;;4.30;1.50;;;14.50;54.00;;;;;;5093895;28;20024;-71
2022/04/11 11:25:18;;;;;;;4.40;1.50;;;14.50;53.40;;;;;;5093763;28;20028;-71
2022/04/11 11:27:45;;;;;;;3.08;1.35;;;14.60;53.80;;;;;;5094468;28;20096;-71
2022/04/11 11:30:12;;;;;;;4.22;2.35;;;14.60;53.30;;;;;;5091546;28;20023;-70
2022/04/11 11:32:41;;;;;;;4.30;1.60;;;14.60;53.50;;;;;;5088196;28;20036;-70
2022/04/11 11:35:11;;;;;;;3.42;1.63;;;14.70;52.90;;;;;;5083093;28;20016;-71
2022/04/11 11:37:38;;;;;;;2.92;1.60;;;14.60;52.00;;;;;;5092472;28;20111;-72
2022/04/11 11:40:05;;;;;;;4.30;1.58;;;14.80;52.70;;;;;;5073181;28;20235;-71
2022/04/11 11:42:35;;;;;;;3.90;1.58;;;14.80;51.90;;;;;;5093723;28;20023;-72
2022/04/11 11:45:02;;;;;;;3.13;1.38;;;14.90;52.10;;;;;;5074784;28;20051;-71
2022/04/11 11:47:28;;;;;;;5.00;1.77;;;14.90;51.90;;;;;;5084606;28;20036;-70
2022/04/11 11:50:01;;;;;;;4.60;1.90;;;15.00;52.40;;;;;;5084954;28;20034;-71
2022/04/11 11:52:27;;;;;;;2.80;1.60;;;15.00;52.70;;;;;;5074067;28;20046;-71
2022/04/11 11:54:53;;;;;;;4.38;1.77;;;15.00;52.30;;;;;;5072961;28;20530;-71
2022/04/11 11:57:22;;;;;;;4.82;1.73;;;15.00;52.50;;;;;;5088093;28;20028;-71
2022/04/11 11:59:55;;;;;;;4.03;1.50;;;15.10;52.50;;;;;;5077520;28;20032;-72
2022/04/11 12:05:25;;;;;;;2.75;1.73;;;15.10;52.50;;;;;;5083895;28;20088;-72
2022/04/11 12:08:15;;;;;;;4.65;2.60;;;15.00;52.30;;;;;;5093065;28;20048;-70
2022/04/11 12:10:42;;;;;;;3.53;1.60;;;15.00;51.60;;;;;;5075477;28;20035;-71
2022/04/11 12:13:07;;;;;;;4.32;1.63;;;15.00;51.40;;;;;;5079689;28;20025;-72
2022/04/11 12:15:34;;;;;;;3.47;1.45;;;14.90;50.70;;;;;;5078526;28;20024;-70
2022/04/11 12:18:02;;;;;;;3.55;1.60;;;14.90;51.20;;;;;;5091776;28;20021;-71
2022/04/11 12:20:31;;;;;;;5.22;1.60;;;14.90;51.40;;;;;;5087637;28;20082;-71
2022/04/11 12:23:01;;;;;;;3.08;1.77;;;15.00;51.10;;;;;;5061907;28;20025;-71
2022/04/11 12:25:31;;;;;;;4.88;1.70;;;15.00;50.80;;;;;;5075738;28;20490;-72
2022/04/11 12:28:21;;;;;;;4.57;1.40;;;14.90;50.70;;;;;;5057141;28;20040;-72
2022/04/11 12:31:11;;;;;;;5.20;1.80;;;15.00;50.90;;;;;;5089399;28;20032;-71
2022/04/11 12:33:49;;;;;;;3.80;1.63;;;15.00;50.90;;;;;;5092221;28;20074;-71
2022/04/11 12:36:20;;;;;;;7.80;2.25;;;14.80;50.00;;;;;;5093087;28;20028;-71
2022/04/11 12:38:47;;;;;;;3.38;1.70;;;14.70;49.90;;;;;;5090461;28;20024;-71
2022/04/11 12:41:41;;;;;;;6.07;1.70;;;14.80;50.50;;;;;;5106194;28;20031;-71
2022/04/11 12:44:16;;;;;;;4.70;1.60;;;14.80;51.00;;;;;;5085171;28;20031;-71
2022/04/11 12:46:42;;;;;;;7.05;2.10;;;14.80;50.80;;;;;;5091821;28;20119;-71
2022/04/11 12:49:09;;;;;;;3.65;1.55;;;14.80;51.10;;;;;;5085620;28;20119;-71
2022/04/11 12:51:35;;;;;;;2.50;1.42;;;14.80;50.90;;;;;;5086097;28;20166;-71
2022/04/11 12:54:14;;;;;;;3.63;1.70;;;14.70;51.10;;;;;;5077845;28;20123;-72
2022/04/11 12:56:47;;;;;;;3.38;1.67;;;14.70;51.00;;;;;;5072642;28;20468;-71
2022/04/11 12:59:29;;;;;;;2.15;1.55;;;14.60;50.90;;;;;;5072418;28;20119;-72